sensor_id;sensor_type;location;lat;lon;timestamp;temperature;humidity
39315;DHT22;28703;44.412;11.918;2023-06-14T00:01:51;20.80;99.90
39315;DHT22;28703;44.412;11.918;2023-06-14T00:04:17;20.80;99.90
39315;DHT22;28703;44.412;11.918;2023-06-14T00:06:44;20.80;99.90
39315;DHT22;28703;44.412;11.918;2023-06-14T00:09:14;20.80;99.90
39315;DHT22;28703;44.412;11.918;2023-06-14T00:11:40;20.80;99.90
39315;DHT22;28703;44.412;11.918;2023-06-14T00:14:07;20.80;99.90
39315;DHT22;28703;44.412;11.918;2023-06-14T00:16:33;20.80;99.90
39315;DHT22;28703;44.412;11.918;2023-06-14T00:19:01;20.80;99.90
39315;DHT22;28703;44.412;11.918;2023-06-14T00:21:30;20.80;99.90
39315;DHT22;28703;44.412;11.918;2023-06-14T00:23:57;20.70;99.90
39315;DHT22;28703;44.412;11.918;2023-06-14T00:26:23;20.80;99.90
39315;DHT22;28703;44.412;11.918;2023-06-14T00:28:49;20.70;99.90
39315;DHT22;28703;44.412;11.918;2023-06-14T00:31:15;20.70;99.90
39315;DHT22;28703;44.412;11.918;2023-06-14T00:33:41;20.70;99.90
39315;DHT22;28703;44.412;11.918;2023-06-14T00:36:07;20.70;99.90
39315;DHT22;28703;44.412;11.918;2023-06-14T00:38:33;20.70;99.90
39315;DHT22;28703;44.412;11.918;2023-06-14T00:41:00;20.70;99.90
39315;DHT22;28703;44.412;11.918;2023-06-14T00:43:26;20.70;99.90
39315;DHT22;28703;44.412;11.918;2023-06-14T00:45:53;20.70;99.90
39315;DHT22;28703;44.412;11.918;2023-06-14T00:48:19;20.70;99.90
39315;DHT22;28703;44.412;11.918;2023-06-14T00:50:45;20.70;99.90
39315;DHT22;28703;44.412;11.918;2023-06-14T00:53:16;20.70;99.90
39315;DHT22;28703;44.412;11.918;2023-06-14T00:55:46;20.70;99.90
39315;DHT22;28703;44.412;11.918;2023-06-14T00:58:16;20.70;99.90
39315;DHT22;28703;44.412;11.918;2023-06-14T01:00:42;20.70;99.90
39315;DHT22;28703;44.412;11.918;2023-06-14T01:03:08;20.70;99.90
39315;DHT22;28703;44.412;11.918;2023-06-14T01:05:38;20.70;99.90
39315;DHT22;28703;44.412;11.918;2023-06-14T01:08:28;20.60;99.90
39315;DHT22;28703;44.412;11.918;2023-06-14T01:11:04;20.60;99.90
39315;DHT22;28703;44.412;11.918;2023-06-14T01:13:43;20.60;99.90
39315;DHT22;28703;44.412;11.918;2023-06-14T01:16:12;20.60;99.90
39315;DHT22;28703;44.412;11.918;2023-06-14T01:18:38;20.60;99.90
39315;DHT22;28703;44.412;11.918;2023-06-14T01:21:04;20.60;99.90
39315;DHT22;28703;44.412;11.918;2023-06-14T01:23:32;20.60;99.90
39315;DHT22;28703;44.412;11.918;2023-06-14T01:25:59;20.50;99.90
39315;DHT22;28703;44.412;11.918;2023-06-14T01:28:27;20.50;99.90
39315;DHT22;28703;44.412;11.918;2023-06-14T01:31:00;20.40;99.90
39315;DHT22;28703;44.412;11.918;2023-06-14T01:33:31;20.40;99.90
39315;DHT22;28703;44.412;11.918;2023-06-14T01:35:59;20.40;99.90
39315;DHT22;28703;44.412;11.918;2023-06-14T01:38:30;20.40;99.90
39315;DHT22;28703;44.412;11.918;2023-06-14T01:40:58;20.40;99.90
39315;DHT22;28703;44.412;11.918;2023-06-14T01:43:26;20.40;99.90
39315;DHT22;28703;44.412;11.918;2023-06-14T01:45:53;20.30;99.90
39315;DHT22;28703;44.412;11.918;2023-06-14T01:48:21;20.30;99.90
39315;DHT22;28703;44.412;11.918;2023-06-14T01:50:49;20.30;99.90
39315;DHT22;28703;44.412;11.918;2023-06-14T01:53:15;20.30;99.90
39315;DHT22;28703;44.412;11.918;2023-06-14T01:55:41;20.30;99.90
39315;DHT22;28703;44.412;11.918;2023-06-14T01:58:09;20.30;99.90
39315;DHT22;28703;44.412;11.918;2023-06-14T02:00:36;20.30;99.90
39315;DHT22;28703;44.412;11.918;2023-06-14T02:03:02;20.30;99.90
39315;DHT22;28703;44.412;11.918;2023-06-14T02:05:30;20.30;99.90
39315;DHT22;28703;44.412;11.918;2023-06-14T02:07:56;20.30;99.90
39315;DHT22;28703;44.412;11.918;2023-06-14T02:10:22;20.30;99.90
39315;DHT22;28703;44.412;11.918;2023-06-14T02:12:48;20.30;99.90
39315;DHT22;28703;44.412;11.918;2023-06-14T02:15:14;20.30;99.90
39315;DHT22;28703;44.412;11.918;2023-06-14T02:17:48;20.30;99.90
39315;DHT22;28703;44.412;11.918;2023-06-14T02:20:17;20.30;99.90
39315;DHT22;28703;44.412;11.918;2023-06-14T02:22:44;20.20;99.90
39315;DHT22;28703;44.412;11.918;2023-06-14T02:25:11;20.20;99.90
39315;DHT22;28703;44.412;11.918;2023-06-14T02:27:36;20.20;99.90
39315;DHT22;28703;44.412;11.918;2023-06-14T02:30:04;20.10;99.90
39315;DHT22;28703;44.412;11.918;2023-06-14T02:32:32;20.10;99.90
39315;DHT22;28703;44.412;11.918;2023-06-14T02:34:59;20.10;99.90
39315;DHT22;28703;44.412;11.918;2023-06-14T02:37:25;20.10;99.90
39315;DHT22;28703;44.412;11.918;2023-06-14T02:39:52;20.10;99.90
39315;DHT22;28703;44.412;11.918;2023-06-14T02:42:18;20.10;99.90
39315;DHT22;28703;44.412;11.918;2023-06-14T02:44:44;20.10;99.90
39315;DHT22;28703;44.412;11.918;2023-06-14T02:47:12;20.10;99.90
39315;DHT22;28703;44.412;11.918;2023-06-14T02:49:38;20.10;99.90
39315;DHT22;28703;44.412;11.918;2023-06-14T02:52:04;20.10;99.90
39315;DHT22;28703;44.412;11.918;2023-06-14T02:54:30;20.10;99.90
39315;DHT22;28703;44.412;11.918;2023-06-14T02:56:58;20.10;99.90
39315;DHT22;28703;44.412;11.918;2023-06-14T02:59:24;20.10;99.90
39315;DHT22;28703;44.412;11.918;2023-06-14T03:01:53;20.10;99.90
39315;DHT22;28703;44.412;11.918;2023-06-14T03:04:19;20.10;99.90
39315;DHT22;28703;44.412;11.918;2023-06-14T03:06:46;20.10;99.90
39315;DHT22;28703;44.412;11.918;2023-06-14T03:09:17;20.10;99.90
39315;DHT22;28703;44.412;11.918;2023-06-14T03:11:43;20.10;99.90
39315;DHT22;28703;44.412;11.918;2023-06-14T03:14:09;20.10;99.90
39315;DHT22;28703;44.412;11.918;2023-06-14T03:16:37;20.10;99.90
39315;DHT22;28703;44.412;11.918;2023-06-14T03:19:04;20.10;99.90
39315;DHT22;28703;44.412;11.918;2023-06-14T03:21:31;20.00;99.90
39315;DHT22;28703;44.412;11.918;2023-06-14T03:24:00;20.00;99.90
39315;DHT22;28703;44.412;11.918;2023-06-14T03:26:27;20.00;99.90
39315;DHT22;28703;44.412;11.918;2023-06-14T03:28:55;20.00;99.90
39315;DHT22;28703;44.412;11.918;2023-06-14T03:31:22;20.00;99.90
39315;DHT22;28703;44.412;11.918;2023-06-14T03:33:49;20.10;99.90
39315;DHT22;28703;44.412;11.918;2023-06-14T03:36:16;20.10;99.90
39315;DHT22;28703;44.412;11.918;2023-06-14T03:38:43;20.00;99.90
39315;DHT22;28703;44.412;11.918;2023-06-14T03:41:11;20.00;99.90
39315;DHT22;28703;44.412;11.918;2023-06-14T03:43:37;20.00;99.90
39315;DHT22;28703;44.412;11.918;2023-06-14T03:46:03;20.00;99.90
39315;DHT22;28703;44.412;11.918;2023-06-14T03:48:32;20.00;99.90
39315;DHT22;28703;44.412;11.918;2023-06-14T03:50:57;20.00;99.90
39315;DHT22;28703;44.412;11.918;2023-06-14T03:53:24;20.00;99.90
39315;DHT22;28703;44.412;11.918;2023-06-14T03:55:52;20.00;99.90
39315;DHT22;28703;44.412;11.918;2023-06-14T03:58:19;20.00;99.90
39315;DHT22;28703;44.412;11.918;2023-06-14T04:00:46;20.00;99.90
39315;DHT22;28703;44.412;11.918;2023-06-14T04:03:12;20.00;99.90
39315;DHT22;28703;44.412;11.918;2023-06-14T04:05:39;20.00;99.90
39315;DHT22;28703;44.412;11.918;2023-06-14T04:08:08;20.10;99.90
39315;DHT22;28703;44.412;11.918;2023-06-14T04:10:36;20.10;99.90
39315;DHT22;28703;44.412;11.918;2023-06-14T04:13:02;20.10;99.90
39315;DHT22;28703;44.412;11.918;2023-06-14T04:15:28;20.10;99.90
39315;DHT22;28703;44.412;11.918;2023-06-14T04:17:55;20.10;99.90
39315;DHT22;28703;44.412;11.918;2023-06-14T04:20:23;20.20;99.90
39315;DHT22;28703;44.412;11.918;2023-06-14T04:22:52;20.20;99.90
39315;DHT22;28703;44.412;11.918;2023-06-14T04:25:19;20.20;99.90
39315;DHT22;28703;44.412;11.918;2023-06-14T04:27:46;20.30;99.90
39315;DHT22;28703;44.412;11.918;2023-06-14T04:30:13;20.30;99.90
39315;DHT22;28703;44.412;11.918;2023-06-14T04:32:45;20.30;99.90
39315;DHT22;28703;44.412;11.918;2023-06-14T04:35:12;20.40;99.90
39315;DHT22;28703;44.412;11.918;2023-06-14T04:37:41;20.40;99.90
39315;DHT22;28703;44.412;11.918;2023-06-14T04:40:09;20.40;99.90
39315;DHT22;28703;44.412;11.918;2023-06-14T04:42:38;20.40;99.90
39315;DHT22;28703;44.412;11.918;2023-06-14T04:45:07;20.40;99.90
39315;DHT22;28703;44.412;11.918;2023-06-14T04:47:36;20.50;99.90
39315;DHT22;28703;44.412;11.918;2023-06-14T04:50:05;20.50;99.90
39315;DHT22;28703;44.412;11.918;2023-06-14T04:52:31;20.50;99.90
39315;DHT22;28703;44.412;11.918;2023-06-14T04:54:59;20.50;99.90
39315;DHT22;28703;44.412;11.918;2023-06-14T04:57:26;20.50;99.90
39315;DHT22;28703;44.412;11.918;2023-06-14T04:59:56;20.50;99.90
39315;DHT22;28703;44.412;11.918;2023-06-14T05:02:25;20.60;99.90
39315;DHT22;28703;44.412;11.918;2023-06-14T05:04:53;20.60;99.90
39315;DHT22;28703;44.412;11.918;2023-06-14T05:07:19;20.60;99.90
39315;DHT22;28703;44.412;11.918;2023-06-14T05:09:47;20.60;99.90
39315;DHT22;28703;44.412;11.918;2023-06-14T05:12:13;20.60;99.90
39315;DHT22;28703;44.412;11.918;2023-06-14T05:14:44;20.60;99.90
39315;DHT22;28703;44.412;11.918;2023-06-14T05:17:10;20.60;99.90
39315;DHT22;28703;44.412;11.918;2023-06-14T05:19:36;20.60;99.90
39315;DHT22;28703;44.412;11.918;2023-06-14T05:22:02;20.60;99.90
39315;DHT22;28703;44.412;11.918;2023-06-14T05:24:28;20.60;99.90
39315;DHT22;28703;44.412;11.918;2023-06-14T05:26:56;20.60;99.90
39315;DHT22;28703;44.412;11.918;2023-06-14T05:29:22;20.60;99.90
39315;DHT22;28703;44.412;11.918;2023-06-14T05:31:48;20.70;99.90
39315;DHT22;28703;44.412;11.918;2023-06-14T05:34:14;20.70;99.90
39315;DHT22;28703;44.412;11.918;2023-06-14T05:36:40;20.70;99.90
39315;DHT22;28703;44.412;11.918;2023-06-14T05:39:06;20.80;99.90
39315;DHT22;28703;44.412;11.918;2023-06-14T05:41:32;20.80;99.90
39315;DHT22;28703;44.412;11.918;2023-06-14T05:43:58;20.80;99.90
39315;DHT22;28703;44.412;11.918;2023-06-14T05:46:25;20.80;99.90
39315;DHT22;28703;44.412;11.918;2023-06-14T05:48:52;20.80;99.90
39315;DHT22;28703;44.412;11.918;2023-06-14T05:51:18;20.90;99.90
39315;DHT22;28703;44.412;11.918;2023-06-14T05:53:47;20.90;99.90
39315;DHT22;28703;44.412;11.918;2023-06-14T05:56:14;20.90;99.90
39315;DHT22;28703;44.412;11.918;2023-06-14T05:58:40;20.90;99.90
39315;DHT22;28703;44.412;11.918;2023-06-14T06:01:07;20.90;99.90
39315;DHT22;28703;44.412;11.918;2023-06-14T06:03:33;21.00;99.90
39315;DHT22;28703;44.412;11.918;2023-06-14T06:05:59;21.00;99.90
39315;DHT22;28703;44.412;11.918;2023-06-14T06:08:26;21.00;99.90
39315;DHT22;28703;44.412;11.918;2023-06-14T06:10:52;21.00;99.90
39315;DHT22;28703;44.412;11.918;2023-06-14T06:13:18;21.00;99.90
39315;DHT22;28703;44.412;11.918;2023-06-14T06:15:44;21.10;99.90
39315;DHT22;28703;44.412;11.918;2023-06-14T06:18:11;21.10;99.90
39315;DHT22;28703;44.412;11.918;2023-06-14T06:20:37;21.10;99.90
39315;DHT22;28703;44.412;11.918;2023-06-14T06:23:03;21.20;99.90
39315;DHT22;28703;44.412;11.918;2023-06-14T06:25:29;21.20;99.90
39315;DHT22;28703;44.412;11.918;2023-06-14T06:27:57;21.20;99.90
39315;DHT22;28703;44.412;11.918;2023-06-14T06:30:24;21.20;99.90
39315;DHT22;28703;44.412;11.918;2023-06-14T06:32:50;21.30;99.90
39315;DHT22;28703;44.412;11.918;2023-06-14T06:35:16;21.30;99.90
39315;DHT22;28703;44.412;11.918;2023-06-14T06:37:43;21.40;99.90
39315;DHT22;28703;44.412;11.918;2023-06-14T06:40:09;21.40;99.90
39315;DHT22;28703;44.412;11.918;2023-06-14T06:42:35;21.40;99.90
39315;DHT22;28703;44.412;11.918;2023-06-14T06:45:05;21.40;99.90
39315;DHT22;28703;44.412;11.918;2023-06-14T06:47:31;21.50;99.90
39315;DHT22;28703;44.412;11.918;2023-06-14T06:49:57;21.40;99.90
39315;DHT22;28703;44.412;11.918;2023-06-14T06:52:23;21.50;99.90
39315;DHT22;28703;44.412;11.918;2023-06-14T06:54:49;21.50;99.90
39315;DHT22;28703;44.412;11.918;2023-06-14T06:57:16;21.50;99.90
39315;DHT22;28703;44.412;11.918;2023-06-14T06:59:42;21.60;99.90
39315;DHT22;28703;44.412;11.918;2023-06-14T07:02:07;21.60;99.90
39315;DHT22;28703;44.412;11.918;2023-06-14T07:04:33;21.60;99.90
39315;DHT22;28703;44.412;11.918;2023-06-14T07:06:59;21.70;99.90
39315;DHT22;28703;44.412;11.918;2023-06-14T07:09:26;21.70;99.90
39315;DHT22;28703;44.412;11.918;2023-06-14T07:11:52;21.80;99.90
39315;DHT22;28703;44.412;11.918;2023-06-14T07:14:17;21.80;99.90
39315;DHT22;28703;44.412;11.918;2023-06-14T07:16:43;21.90;99.90
39315;DHT22;28703;44.412;11.918;2023-06-14T07:19:10;22.00;99.90
39315;DHT22;28703;44.412;11.918;2023-06-14T07:21:36;22.10;99.90
39315;DHT22;28703;44.412;11.918;2023-06-14T07:24:07;22.10;99.90
39315;DHT22;28703;44.412;11.918;2023-06-14T07:26:33;22.20;99.90
39315;DHT22;28703;44.412;11.918;2023-06-14T07:29:01;22.30;99.90
39315;DHT22;28703;44.412;11.918;2023-06-14T07:31:27;22.30;99.90
39315;DHT22;28703;44.412;11.918;2023-06-14T07:33:53;22.30;99.90
39315;DHT22;28703;44.412;11.918;2023-06-14T07:36:18;22.40;99.90
39315;DHT22;28703;44.412;11.918;2023-06-14T07:38:46;22.40;99.90
39315;DHT22;28703;44.412;11.918;2023-06-14T07:41:12;22.50;99.90
39315;DHT22;28703;44.412;11.918;2023-06-14T07:43:38;22.50;99.90
39315;DHT22;28703;44.412;11.918;2023-06-14T07:46:04;22.50;99.90
39315;DHT22;28703;44.412;11.918;2023-06-14T07:48:30;22.60;99.90
39315;DHT22;28703;44.412;11.918;2023-06-14T07:50:56;22.60;99.90
39315;DHT22;28703;44.412;11.918;2023-06-14T07:53:22;22.70;99.90
39315;DHT22;28703;44.412;11.918;2023-06-14T07:55:48;22.70;99.90
39315;DHT22;28703;44.412;11.918;2023-06-14T07:58:15;22.80;99.90
39315;DHT22;28703;44.412;11.918;2023-06-14T08:00:40;22.90;99.90
39315;DHT22;28703;44.412;11.918;2023-06-14T08:03:06;22.90;99.90
39315;DHT22;28703;44.412;11.918;2023-06-14T08:05:33;23.00;99.90
39315;DHT22;28703;44.412;11.918;2023-06-14T08:07:59;23.00;99.90
39315;DHT22;28703;44.412;11.918;2023-06-14T08:10:25;23.10;99.90
39315;DHT22;28703;44.412;11.918;2023-06-14T08:12:51;23.10;99.90
39315;DHT22;28703;44.412;11.918;2023-06-14T08:15:17;23.20;99.90
39315;DHT22;28703;44.412;11.918;2023-06-14T08:17:44;23.30;99.90
39315;DHT22;28703;44.412;11.918;2023-06-14T08:20:10;23.30;99.90
39315;DHT22;28703;44.412;11.918;2023-06-14T08:22:36;23.40;99.90
39315;DHT22;28703;44.412;11.918;2023-06-14T08:25:03;23.40;99.90
39315;DHT22;28703;44.412;11.918;2023-06-14T08:27:30;23.50;99.90
39315;DHT22;28703;44.412;11.918;2023-06-14T08:29:56;23.60;99.90
39315;DHT22;28703;44.412;11.918;2023-06-14T08:32:22;23.60;99.90
39315;DHT22;28703;44.412;11.918;2023-06-14T08:34:48;23.70;99.90
39315;DHT22;28703;44.412;11.918;2023-06-14T08:37:14;23.70;99.90
39315;DHT22;28703;44.412;11.918;2023-06-14T08:39:41;23.80;99.90
39315;DHT22;28703;44.412;11.918;2023-06-14T08:42:07;23.90;99.90
39315;DHT22;28703;44.412;11.918;2023-06-14T08:44:34;23.90;99.90
39315;DHT22;28703;44.412;11.918;2023-06-14T08:47:00;24.00;99.90
39315;DHT22;28703;44.412;11.918;2023-06-14T08:49:29;24.00;99.90
39315;DHT22;28703;44.412;11.918;2023-06-14T08:52:00;24.10;99.90
39315;DHT22;28703;44.412;11.918;2023-06-14T08:54:29;24.20;99.90
39315;DHT22;28703;44.412;11.918;2023-06-14T08:56:59;24.20;99.90
39315;DHT22;28703;44.412;11.918;2023-06-14T08:59:26;24.20;99.90
39315;DHT22;28703;44.412;11.918;2023-06-14T09:01:53;24.20;99.90
39315;DHT22;28703;44.412;11.918;2023-06-14T09:04:21;24.30;99.90
39315;DHT22;28703;44.412;11.918;2023-06-14T09:06:47;24.30;99.90
39315;DHT22;28703;44.412;11.918;2023-06-14T09:09:23;24.40;99.90
39315;DHT22;28703;44.412;11.918;2023-06-14T09:11:52;24.50;99.90
39315;DHT22;28703;44.412;11.918;2023-06-14T09:14:19;24.50;99.90
39315;DHT22;28703;44.412;11.918;2023-06-14T09:16:45;24.60;99.90
39315;DHT22;28703;44.412;11.918;2023-06-14T09:19:24;24.70;99.90
39315;DHT22;28703;44.412;11.918;2023-06-14T09:21:50;24.70;99.90
39315;DHT22;28703;44.412;11.918;2023-06-14T09:24:18;24.80;99.90
39315;DHT22;28703;44.412;11.918;2023-06-14T09:26:47;24.80;99.90
39315;DHT22;28703;44.412;11.918;2023-06-14T09:29:13;24.80;99.90
39315;DHT22;28703;44.412;11.918;2023-06-14T09:31:39;24.90;99.90
39315;DHT22;28703;44.412;11.918;2023-06-14T09:34:05;24.90;99.90
39315;DHT22;28703;44.412;11.918;2023-06-14T09:36:32;24.80;99.90
39315;DHT22;28703;44.412;11.918;2023-06-14T09:38:59;24.90;99.90
39315;DHT22;28703;44.412;11.918;2023-06-14T09:41:37;24.90;99.90
39315;DHT22;28703;44.412;11.918;2023-06-14T09:44:06;24.90;99.90
39315;DHT22;28703;44.412;11.918;2023-06-14T09:46:33;24.90;99.90
39315;DHT22;28703;44.412;11.918;2023-06-14T09:49:00;24.90;99.90
39315;DHT22;28703;44.412;11.918;2023-06-14T09:51:27;24.90;99.90
39315;DHT22;28703;44.412;11.918;2023-06-14T09:54:00;24.90;99.90
39315;DHT22;28703;44.412;11.918;2023-06-14T09:56:37;24.90;99.90
39315;DHT22;28703;44.412;11.918;2023-06-14T09:59:05;24.90;99.90
39315;DHT22;28703;44.412;11.918;2023-06-14T10:01:34;25.00;99.90
39315;DHT22;28703;44.412;11.918;2023-06-14T10:04:05;25.00;99.90
39315;DHT22;28703;44.412;11.918;2023-06-14T10:06:32;25.00;99.90
39315;DHT22;28703;44.412;11.918;2023-06-14T10:09:00;25.00;99.90
39315;DHT22;28703;44.412;11.918;2023-06-14T10:11:27;25.00;99.90
39315;DHT22;28703;44.412;11.918;2023-06-14T10:13:57;25.10;99.90
39315;DHT22;28703;44.412;11.918;2023-06-14T10:21:58;25.20;99.90
39315;DHT22;28703;44.412;11.918;2023-06-14T10:24:33;25.20;99.90
39315;DHT22;28703;44.412;11.918;2023-06-14T10:27:00;25.20;99.90
39315;DHT22;28703;44.412;11.918;2023-06-14T10:29:29;25.10;99.90
39315;DHT22;28703;44.412;11.918;2023-06-14T10:31:59;25.20;99.90
39315;DHT22;28703;44.412;11.918;2023-06-14T10:34:32;25.10;99.90
39315;DHT22;28703;44.412;11.918;2023-06-14T10:37:11;25.20;99.90
39315;DHT22;28703;44.412;11.918;2023-06-14T10:39:42;25.20;99.90
39315;DHT22;28703;44.412;11.918;2023-06-14T10:42:10;25.20;99.90
39315;DHT22;28703;44.412;11.918;2023-06-14T10:44:58;25.20;99.90
39315;DHT22;28703;44.412;11.918;2023-06-14T10:47:28;25.20;99.90
39315;DHT22;28703;44.412;11.918;2023-06-14T10:50:06;25.10;99.90
39315;DHT22;28703;44.412;11.918;2023-06-14T10:52:34;25.10;99.90
39315;DHT22;28703;44.412;11.918;2023-06-14T10:55:14;25.10;99.90
39315;DHT22;28703;44.412;11.918;2023-06-14T11:00:13;25.10;99.90
39315;DHT22;28703;44.412;11.918;2023-06-14T11:05:27;25.20;99.90
39315;DHT22;28703;44.412;11.918;2023-06-14T11:12:57;25.20;99.90
39315;DHT22;28703;44.412;11.918;2023-06-14T11:15:33;25.20;99.90
39315;DHT22;28703;44.412;11.918;2023-06-14T11:18:04;25.30;99.90
39315;DHT22;28703;44.412;11.918;2023-06-14T11:20:33;25.30;99.90
39315;DHT22;28703;44.412;11.918;2023-06-14T11:22:59;25.30;99.90
39315;DHT22;28703;44.412;11.918;2023-06-14T11:25:26;25.40;99.90
39315;DHT22;28703;44.412;11.918;2023-06-14T11:27:54;25.40;99.90
39315;DHT22;28703;44.412;11.918;2023-06-14T11:30:21;25.50;99.90
39315;DHT22;28703;44.412;11.918;2023-06-14T11:32:48;25.60;99.90
39315;DHT22;28703;44.412;11.918;2023-06-14T11:35:14;25.70;99.90
39315;DHT22;28703;44.412;11.918;2023-06-14T11:37:40;25.90;99.90
39315;DHT22;28703;44.412;11.918;2023-06-14T11:40:08;26.00;99.90
39315;DHT22;28703;44.412;11.918;2023-06-14T11:42:36;26.10;99.90
39315;DHT22;28703;44.412;11.918;2023-06-14T11:45:03;26.30;99.90
39315;DHT22;28703;44.412;11.918;2023-06-14T11:47:34;26.40;99.90
39315;DHT22;28703;44.412;11.918;2023-06-14T11:50:02;26.60;99.90
39315;DHT22;28703;44.412;11.918;2023-06-14T11:52:28;26.70;99.90
39315;DHT22;28703;44.412;11.918;2023-06-14T11:54:56;26.90;99.90
39315;DHT22;28703;44.412;11.918;2023-06-14T11:57:22;27.00;99.90
39315;DHT22;28703;44.412;11.918;2023-06-14T11:59:48;27.10;99.90
39315;DHT22;28703;44.412;11.918;2023-06-14T12:02:15;27.20;99.90
39315;DHT22;28703;44.412;11.918;2023-06-14T12:04:46;27.30;99.90
39315;DHT22;28703;44.412;11.918;2023-06-14T12:07:16;27.40;99.90
39315;DHT22;28703;44.412;11.918;2023-06-14T12:12:23;27.70;99.90
39315;DHT22;28703;44.412;11.918;2023-06-14T12:14:55;27.80;99.90
39315;DHT22;28703;44.412;11.918;2023-06-14T12:17:21;27.90;99.90
39315;DHT22;28703;44.412;11.918;2023-06-14T12:19:49;28.10;99.70
39315;DHT22;28703;44.412;11.918;2023-06-14T12:22:16;28.20;99.30
39315;DHT22;28703;44.412;11.918;2023-06-14T12:24:45;28.40;99.20
39315;DHT22;28703;44.412;11.918;2023-06-14T12:27:12;28.50;98.80
39315;DHT22;28703;44.412;11.918;2023-06-14T12:29:41;28.70;98.50
39315;DHT22;28703;44.412;11.918;2023-06-14T12:32:09;28.80;98.20
39315;DHT22;28703;44.412;11.918;2023-06-14T12:34:35;29.00;98.30
39315;DHT22;28703;44.412;11.918;2023-06-14T12:37:02;29.10;97.90
39315;DHT22;28703;44.412;11.918;2023-06-14T12:39:30;29.10;97.70
39315;DHT22;28703;44.412;11.918;2023-06-14T12:41:59;29.10;97.40
39315;DHT22;28703;44.412;11.918;2023-06-14T12:44:25;29.00;97.30
39315;DHT22;28703;44.412;11.918;2023-06-14T12:46:51;29.00;97.20
39315;DHT22;28703;44.412;11.918;2023-06-14T12:49:18;29.00;97.00
39315;DHT22;28703;44.412;11.918;2023-06-14T12:51:45;28.90;96.70
39315;DHT22;28703;44.412;11.918;2023-06-14T12:54:11;28.80;96.70
39315;DHT22;28703;44.412;11.918;2023-06-14T12:56:37;28.90;96.80
39315;DHT22;28703;44.412;11.918;2023-06-14T12:59:03;28.90;96.60
39315;DHT22;28703;44.412;11.918;2023-06-14T13:01:29;29.00;96.20
39315;DHT22;28703;44.412;11.918;2023-06-14T13:03:55;29.20;96.30
39315;DHT22;28703;44.412;11.918;2023-06-14T13:06:22;29.30;96.20
39315;DHT22;28703;44.412;11.918;2023-06-14T13:08:50;29.50;95.70
39315;DHT22;28703;44.412;11.918;2023-06-14T13:11:16;29.60;95.50
39315;DHT22;28703;44.412;11.918;2023-06-14T13:13:42;29.80;95.30
39315;DHT22;28703;44.412;11.918;2023-06-14T13:16:08;30.00;94.90
39315;DHT22;28703;44.412;11.918;2023-06-14T13:18:34;30.10;94.40
39315;DHT22;28703;44.412;11.918;2023-06-14T13:21:00;30.20;94.20
39315;DHT22;28703;44.412;11.918;2023-06-14T13:23:26;30.30;94.20
39315;DHT22;28703;44.412;11.918;2023-06-14T13:25:52;30.50;94.20
39315;DHT22;28703;44.412;11.918;2023-06-14T13:28:18;30.60;94.00
39315;DHT22;28703;44.412;11.918;2023-06-14T13:30:45;30.70;93.70
39315;DHT22;28703;44.412;11.918;2023-06-14T13:33:10;30.80;93.60
39315;DHT22;28703;44.412;11.918;2023-06-14T13:35:36;30.80;93.40
39315;DHT22;28703;44.412;11.918;2023-06-14T13:38:02;30.90;93.50
39315;DHT22;28703;44.412;11.918;2023-06-14T13:40:28;31.00;93.20
39315;DHT22;28703;44.412;11.918;2023-06-14T13:42:54;31.10;93.00
39315;DHT22;28703;44.412;11.918;2023-06-14T13:45:20;31.10;92.60
39315;DHT22;28703;44.412;11.918;2023-06-14T13:47:46;31.20;92.50
39315;DHT22;28703;44.412;11.918;2023-06-14T13:50:14;31.30;92.60
39315;DHT22;28703;44.412;11.918;2023-06-14T13:52:40;31.30;92.50
39315;DHT22;28703;44.412;11.918;2023-06-14T13:55:06;31.40;92.30
39315;DHT22;28703;44.412;11.918;2023-06-14T13:57:31;31.50;92.40
39315;DHT22;28703;44.412;11.918;2023-06-14T13:59:58;31.60;92.20
39315;DHT22;28703;44.412;11.918;2023-06-14T14:02:29;31.70;92.00
39315;DHT22;28703;44.412;11.918;2023-06-14T14:04:56;31.80;92.00
39315;DHT22;28703;44.412;11.918;2023-06-14T14:07:22;31.90;91.80
39315;DHT22;28703;44.412;11.918;2023-06-14T14:09:49;31.90;91.70
39315;DHT22;28703;44.412;11.918;2023-06-14T14:12:15;31.90;91.70
39315;DHT22;28703;44.412;11.918;2023-06-14T14:14:41;31.90;91.60
39315;DHT22;28703;44.412;11.918;2023-06-14T14:17:07;32.00;91.40
39315;DHT22;28703;44.412;11.918;2023-06-14T14:19:33;32.10;91.40
39315;DHT22;28703;44.412;11.918;2023-06-14T14:21:59;32.20;91.50
39315;DHT22;28703;44.412;11.918;2023-06-14T14:24:25;32.30;91.60
39315;DHT22;28703;44.412;11.918;2023-06-14T14:26:51;32.40;91.70
39315;DHT22;28703;44.412;11.918;2023-06-14T14:29:19;32.40;91.50
39315;DHT22;28703;44.412;11.918;2023-06-14T14:31:45;32.40;91.70
39315;DHT22;28703;44.412;11.918;2023-06-14T14:34:12;32.40;91.60
39315;DHT22;28703;44.412;11.918;2023-06-14T14:36:38;32.20;91.60
39315;DHT22;28703;44.412;11.918;2023-06-14T14:39:08;32.00;91.50
39315;DHT22;28703;44.412;11.918;2023-06-14T14:41:34;31.90;91.70
39315;DHT22;28703;44.412;11.918;2023-06-14T14:44:00;31.70;91.70
39315;DHT22;28703;44.412;11.918;2023-06-14T14:46:28;31.60;91.80
39315;DHT22;28703;44.412;11.918;2023-06-14T14:48:54;31.50;92.10
39315;DHT22;28703;44.412;11.918;2023-06-14T14:51:19;31.50;92.40
39315;DHT22;28703;44.412;11.918;2023-06-14T14:53:45;31.60;92.50
39315;DHT22;28703;44.412;11.918;2023-06-14T14:56:11;31.60;92.40
39315;DHT22;28703;44.412;11.918;2023-06-14T14:58:38;31.70;92.20
39315;DHT22;28703;44.412;11.918;2023-06-14T15:01:03;31.70;92.10
39315;DHT22;28703;44.412;11.918;2023-06-14T15:03:31;31.70;92.00
39315;DHT22;28703;44.412;11.918;2023-06-14T15:05:57;31.70;91.70
39315;DHT22;28703;44.412;11.918;2023-06-14T15:08:23;31.70;91.50
39315;DHT22;28703;44.412;11.918;2023-06-14T15:10:49;31.70;91.50
39315;DHT22;28703;44.412;11.918;2023-06-14T15:13:15;31.70;91.60
39315;DHT22;28703;44.412;11.918;2023-06-14T15:15:41;31.70;91.60
39315;DHT22;28703;44.412;11.918;2023-06-14T15:18:06;31.80;91.50
39315;DHT22;28703;44.412;11.918;2023-06-14T15:20:32;31.90;91.60
39315;DHT22;28703;44.412;11.918;2023-06-14T15:22:58;31.90;91.50
39315;DHT22;28703;44.412;11.918;2023-06-14T15:25:31;32.00;91.30
39315;DHT22;28703;44.412;11.918;2023-06-14T15:27:58;32.10;90.70
39315;DHT22;28703;44.412;11.918;2023-06-14T15:30:24;32.30;90.70
39315;DHT22;28703;44.412;11.918;2023-06-14T15:32:50;32.50;90.60
39315;DHT22;28703;44.412;11.918;2023-06-14T15:35:17;32.70;90.70